Detall de PIREP

Printer-friendly versionPDF version

[2012/12/18 10:07:00]
Flight IATA:CT1004
Pilot Number:042
Company ICAO:CAT
Aircraft Type:B738/F
PAX:98
Departing Airport: LERS
Destination Airport: LXGB
Alternate Airport:LEMG
Online: VATSIM
Route:EBROX UM985 PIMOS
Flight Level:F330
No Slew and time accel
No pause
Crash detect
Detect pilot in Cockpit between each 30 and 45 minutes
10:07 Zero fuel Weight: 115600 Lbs, Fuel Weight: 46056 Lbs
10:07 VATSIM:LERS 180930Z 32011KT 280V010 CAVOK 13/03 Q1021
10:07 VATSIM:LXGB 180850Z 23006KT 9999 FEW020 15/13 Q1024 NOSIG
10:07 VOICE CATALONIAN/X-MAS CHARTER
10:15 Parking Brakes off
10:22 Take-off
10:22 Take off Weight: 160720 Lbs
10:22 Wind: 000º @ 000 Knots Heading: 250º
10:22 POS N41º 08´ 35´´ E001º 09´ 08´´
10:22 Gear Up: 173 Knots
10:22 Flaps:5 at 173 Knots
10:22 Flaps:4 at 170 Knots
10:22 Flaps:3 at 164 Knots
10:24 Flaps:2 at 187 Knots
10:24 Flaps:1 at 188 Knots
10:24 Flaps:0 at 189 Knots
10:37 Wind:308º@053 Knots Heading: 233º Ground Speed: 439 Knots Altitude 27575 ft
10:41 TOC
10:41 Fuel Weight: 40938 Lb
10:41 TOD
10:41 Fuel Weight: 40899 Lb
10:43 TOC
10:43 Fuel Weight: 40703 Lb
10:43 TOD
10:43 Fuel Weight: 40695 Lb
10:43 TOC
10:43 Fuel Weight: 40656 Lb
10:52 Wind:296º@084 Knots Heading: 241º Ground Speed: 409 Knots Altitude 33257 ft
11:07 Wind:285º@034 Knots Heading: 229º Ground Speed: 441 Knots Altitude 33336 ft
11:12 TOD
11:12 Fuel Weight: 37680 Lb
11:13 TOC
11:13 Fuel Weight: 37614 Lb
11:13 TOD
11:13 Fuel Weight: 37611 Lb
11:22 Wind:300º@026 Knots Heading: 217º Ground Speed: 305 Knots Altitude 19353 ft
11:27 Flaps:1 at 227 Knots
11:27 Flaps:2 at 226 Knots
11:30 Flaps:3 at 200 Knots
11:30 Flaps:4 at 196 Knots
11:30 Flaps:5 at 185 Knots
11:32 Gear Down: 160 Knots
11:32 Flaps:6 at 160 Knots
11:32 Flaps:7 at 160 Knots
11:32 Flaps:8 at 158 Knots
11:36 Gear Up: 144 Knots
11:37 Wind:254º@008 Knots Heading: 265º Ground Speed: 136 Knots Altitude 488 ft
11:38 Gear Down: 136 Knots
11:38 TouchDown:Rate -522 ft/min Speed: 119 Knots
11:39 VATSIM:LXGB 181050Z 21006KT 9999 FEW025 17/13 Q1024 NOSIG
11:39 Land
11:39 Wind:254º@008 Knots
11:39 Heading: 265º
11:39 Flight Duration: 01:17
11:39 Landing Weight: 151626 Lbs
11:39 POS N36º 09´ 09´´ W005º 21´ 13´´
11:41 Parking brakes on
11:41 Block to Block Duration: 01:26
11:41 Final Fuel: 35690 Lbls
11:41 Spent Fuel: 10365 Lbls
11:41 Flight Length: 448 NM
11:41 TOD Land Length: 106 NM

Exportar CSV

Powered by Drupal - Modified by Danger4k